createdAt,value
2023-05-01T00:03:54.490Z,12.04
2023-05-01T00:08:56.091Z,11.69
2023-05-01T00:13:57.284Z,11.58
2023-05-01T00:18:58.509Z,11.62
2023-05-01T00:23:59.724Z,11.52
2023-05-01T00:29:01.207Z,11.50
2023-05-01T00:34:02.570Z,11.50
2023-05-01T00:39:03.877Z,11.25
2023-05-01T00:44:05.080Z,11.28
2023-05-01T00:49:06.373Z,11.18
2023-05-01T00:54:07.650Z,11.02
2023-05-01T00:59:09.056Z,11.03
2023-05-01T01:04:10.472Z,10.54
2023-05-01T01:09:11.722Z,10.66
2023-05-01T01:14:13.007Z,10.88
2023-05-01T01:19:14.236Z,10.49
2023-05-01T01:24:15.760Z,10.36
2023-05-01T01:29:17.198Z,10.19
2023-05-01T01:34:18.704Z,10.14
2023-05-01T01:39:19.994Z,9.99
2023-05-01T01:44:21.438Z,10.01
2023-05-01T01:49:23.002Z,10.11
2023-05-01T01:54:24.255Z,10.27
2023-05-01T01:59:25.625Z,10.28
2023-05-01T02:04:26.921Z,10.45
2023-05-01T02:09:28.153Z,10.35
2023-05-01T02:14:29.659Z,10.38
2023-05-01T02:19:31.047Z,10.42
2023-05-01T02:24:32.391Z,10.22
2023-05-01T02:29:34.143Z,10.00
2023-05-01T02:34:35.610Z,10.21
2023-05-01T02:39:36.905Z,10.09
2023-05-01T02:44:38.177Z,10.09
2023-05-01T02:49:39.453Z,10.06
2023-05-01T02:54:40.692Z,9.96
2023-05-01T02:59:41.930Z,10.11
2023-05-01T03:04:43.830Z,9.65
2023-05-01T03:09:45.361Z,9.86
2023-05-01T03:14:46.580Z,9.81
2023-05-01T03:19:49.578Z,9.67
2023-05-01T03:24:51.096Z,9.71
2023-05-01T03:29:52.843Z,9.83
2023-05-01T03:34:54.178Z,9.65
2023-05-01T03:39:55.799Z,9.50
2023-05-01T03:44:57.199Z,9.74
2023-05-01T03:49:58.707Z,9.82
2023-05-01T03:55:00.603Z,9.66
2023-05-01T04:00:01.892Z,9.09
2023-05-01T04:05:03.227Z,8.92
2023-05-01T04:10:04.741Z,9.00
2023-05-01T04:15:05.954Z,8.98
2023-05-01T04:20:07.205Z,8.90
2023-05-01T04:25:08.607Z,8.80
2023-05-01T04:30:09.876Z,9.13
2023-05-01T04:35:12.275Z,9.09
2023-05-01T04:40:13.504Z,8.46
2023-05-01T04:45:14.798Z,8.47
2023-05-01T04:50:16.114Z,8.65
2023-05-01T04:55:18.168Z,9.01
2023-05-01T05:00:19.778Z,9.24
2023-05-01T05:05:21.120Z,8.60
2023-05-01T05:10:22.364Z,8.58
2023-05-01T05:15:23.664Z,9.09
2023-05-01T05:20:24.911Z,9.00
2023-05-01T05:25:26.157Z,9.31
2023-05-01T05:30:27.446Z,9.41
2023-05-01T05:35:28.661Z,9.47
2023-05-01T05:40:30.143Z,9.66
2023-05-01T05:45:31.731Z,9.66
2023-05-01T05:50:33.000Z,9.98
2023-05-01T05:55:34.266Z,9.50
2023-05-01T06:00:35.551Z,9.76
2023-05-01T06:05:37.112Z,9.76
2023-05-01T06:10:39.486Z,9.90
2023-05-01T06:15:40.915Z,9.82
2023-05-01T06:20:42.729Z,12.66
2023-05-01T06:25:44.380Z,13.48
2023-05-01T06:30:45.712Z,12.54
2023-05-01T06:35:46.969Z,11.97
2023-05-01T06:40:48.236Z,11.89
2023-05-01T06:45:49.916Z,11.89
2023-05-01T06:50:51.179Z,11.93
2023-05-01T06:55:52.379Z,12.18
2023-05-01T07:00:53.788Z,12.40
2023-05-01T07:05:55.196Z,12.37
2023-05-01T07:10:56.479Z,12.45
2023-05-01T07:15:57.751Z,12.40
2023-05-01T07:20:59.031Z,12.68
2023-05-01T07:26:00.418Z,13.22
2023-05-01T07:31:01.779Z,12.70
2023-05-01T07:36:04.506Z,13.81
2023-05-01T07:41:05.860Z,14.23
2023-05-01T07:46:07.242Z,14.59
2023-05-01T07:51:08.743Z,14.65
2023-05-01T07:56:10.166Z,14.81
2023-05-01T08:01:11.466Z,14.67
2023-05-01T08:06:12.790Z,14.57
2023-05-01T08:11:14.290Z,14.70
2023-05-01T08:16:15.576Z,14.33
2023-05-01T08:21:16.926Z,14.42
2023-05-01T08:26:19.499Z,14.29
2023-05-01T08:31:21.637Z,14.22
2023-05-01T08:36:22.910Z,14.63
2023-05-01T08:41:24.219Z,14.90
2023-05-01T08:46:25.904Z,14.93
2023-05-01T08:51:27.287Z,14.96
2023-05-01T08:56:29.746Z,15.18
2023-05-01T09:01:32.861Z,15.55
2023-05-01T09:06:34.627Z,15.84
2023-05-01T09:11:38.280Z,15.70
2023-05-01T09:16:39.737Z,15.98
2023-05-01T09:21:41.638Z,15.88
2023-05-01T09:26:43.347Z,15.72
2023-05-01T09:31:44.633Z,15.61
2023-05-01T09:36:47.600Z,15.88
2023-05-01T09:41:48.872Z,15.80
2023-05-01T09:46:50.853Z,15.79
2023-05-01T09:51:52.244Z,16.20
2023-05-01T09:56:53.499Z,15.84
2023-05-01T10:01:54.837Z,15.80
2023-05-01T10:06:56.251Z,16.03
2023-05-01T10:11:59.015Z,16.00
2023-05-01T10:17:00.431Z,16.64
2023-05-01T10:22:01.752Z,16.91
2023-05-01T10:27:05.564Z,17.17
2023-05-01T10:32:09.895Z,17.37
2023-05-01T10:37:12.822Z,17.46
2023-05-01T10:42:14.771Z,17.21
2023-05-01T10:47:16.025Z,17.26
2023-05-01T10:52:17.542Z,17.54
2023-05-01T10:57:18.807Z,17.96
2023-05-01T11:02:20.281Z,18.27
2023-05-01T11:07:22.349Z,18.21
2023-05-01T11:12:24.062Z,18.01
2023-05-01T11:17:25.501Z,18.16
2023-05-01T11:22:26.796Z,18.03
2023-05-01T11:27:28.023Z,18.40
2023-05-01T11:32:32.433Z,18.59
2023-05-01T11:37:33.679Z,18.61
2023-05-01T11:42:35.021Z,18.71
2023-05-01T11:47:36.462Z,18.60
2023-05-01T11:52:38.158Z,18.37
2023-05-01T11:57:39.428Z,18.68
2023-05-01T12:02:40.734Z,18.88
2023-05-01T12:07:41.992Z,19.13
2023-05-01T12:12:43.210Z,19.17
2023-05-01T12:17:46.419Z,19.28
2023-05-01T12:22:48.406Z,18.86
2023-05-01T12:27:49.607Z,19.04
2023-05-01T12:32:50.990Z,19.00
2023-05-01T12:37:52.283Z,19.05
2023-05-01T12:42:53.532Z,18.90
2023-05-01T12:47:54.787Z,18.84
2023-05-01T12:52:56.134Z,19.10
2023-05-01T12:57:57.442Z,18.57
2023-05-01T13:02:58.706Z,18.87
2023-05-01T13:07:59.976Z,18.76
2023-05-01T13:13:01.287Z,18.98
2023-05-01T13:18:02.716Z,18.83
2023-05-01T13:23:03.971Z,18.68
2023-05-01T13:28:05.210Z,18.32
2023-05-01T13:33:07.778Z,18.11
2023-05-01T13:38:09.211Z,18.03
2023-05-01T13:43:10.511Z,18.19
2023-05-01T13:48:12.242Z,18.10
2023-05-01T13:53:13.483Z,18.10
2023-05-01T13:58:14.744Z,17.89
2023-05-01T14:03:16.189Z,17.16
2023-05-01T14:08:17.694Z,16.78
2023-05-01T14:13:19.145Z,16.32
2023-05-01T14:18:20.815Z,15.37
2023-05-01T14:23:22.985Z,15.00
2023-05-01T14:28:24.218Z,15.02
2023-05-01T14:33:26.810Z,14.75
2023-05-01T14:38:28.141Z,14.55
2023-05-01T14:43:29.380Z,14.42
2023-05-01T14:48:30.912Z,14.43
2023-05-01T14:53:33.540Z,15.28
2023-05-01T14:58:34.867Z,14.94
2023-05-01T15:03:40.930Z,14.55
2023-05-01T15:08:42.796Z,14.36
2023-05-01T15:13:45.184Z,14.88
2023-05-01T15:18:46.407Z,14.55
2023-05-01T15:23:47.815Z,14.29
2023-05-01T15:28:49.165Z,14.69
2023-05-01T15:33:50.512Z,14.11
2023-05-01T15:38:51.895Z,13.97
2023-05-01T15:43:54.337Z,13.84
2023-05-01T15:48:55.850Z,14.01
2023-05-01T15:53:58.587Z,14.42
2023-05-01T15:58:59.950Z,14.49
2023-05-01T16:04:01.292Z,14.78
2023-05-01T16:09:02.623Z,14.60
2023-05-01T16:14:03.902Z,14.92
2023-05-01T16:19:05.584Z,14.95
2023-05-01T16:24:06.821Z,14.85
2023-05-01T16:29:08.712Z,15.26
2023-05-01T16:34:10.019Z,14.85
2023-05-01T16:39:11.331Z,15.28
2023-05-01T16:44:12.599Z,14.97
2023-05-01T16:49:14.325Z,15.11
2023-05-01T16:54:15.608Z,14.94
2023-05-01T16:59:16.838Z,14.41
2023-05-01T17:04:18.118Z,14.81
2023-05-01T17:09:19.407Z,15.13
2023-05-01T17:14:20.978Z,14.55
2023-05-01T17:19:22.210Z,14.75
2023-05-01T17:24:23.732Z,14.97
2023-05-01T17:29:25.010Z,14.82
2023-05-01T17:34:26.285Z,14.92
2023-05-01T17:39:28.130Z,14.40
2023-05-01T17:44:29.417Z,14.48
2023-05-01T17:49:30.673Z,14.47
2023-05-01T17:54:32.093Z,14.80
2023-05-01T17:59:33.297Z,15.13
2023-05-01T18:04:36.069Z,14.90
2023-05-01T18:09:38.143Z,15.09
2023-05-01T18:14:39.403Z,15.43
2023-05-01T18:19:41.296Z,16.83
2023-05-01T18:24:42.515Z,16.79
2023-05-01T18:29:44.253Z,16.40
2023-05-01T18:34:45.855Z,15.82
2023-05-01T18:39:47.128Z,15.46
2023-05-01T18:44:48.386Z,15.08
2023-05-01T18:49:49.609Z,14.67
2023-05-01T18:54:51.281Z,14.40
2023-05-01T18:59:52.504Z,14.22
2023-05-01T19:04:57.741Z,13.94
2023-05-01T19:10:00.993Z,13.87
2023-05-01T19:15:02.532Z,13.90
2023-05-01T19:20:04.459Z,13.51
2023-05-01T19:25:05.917Z,13.32
2023-05-01T19:30:07.174Z,13.31
2023-05-01T19:35:11.184Z,13.41
2023-05-01T19:40:12.654Z,13.22
2023-05-01T19:45:15.757Z,13.12
2023-05-01T19:50:22.169Z,13.20
2023-05-01T19:55:23.372Z,13.24
2023-05-01T20:00:24.603Z,13.27
2023-05-01T20:05:28.165Z,13.33
2023-05-01T20:10:29.493Z,13.30
2023-05-01T20:15:30.748Z,13.41
2023-05-01T20:20:32.132Z,13.12
2023-05-01T20:25:33.415Z,13.05
2023-05-01T20:30:35.656Z,13.11
2023-05-01T20:35:37.140Z,13.57
2023-05-01T20:40:40.311Z,13.63
2023-05-01T20:45:41.627Z,13.63
2023-05-01T20:50:43.857Z,13.65
2023-05-01T20:55:45.293Z,13.18
2023-05-01T21:00:46.576Z,13.48
2023-05-01T21:05:47.869Z,13.48
2023-05-01T21:10:49.092Z,13.37
2023-05-01T21:15:50.423Z,13.14
2023-05-01T21:20:51.693Z,12.92
2023-05-01T21:25:52.902Z,12.92
2023-05-01T21:30:54.194Z,12.92
2023-05-01T21:35:55.442Z,12.35
2023-05-01T21:40:57.026Z,12.67
2023-05-01T21:45:58.267Z,12.83
2023-05-01T21:51:00.626Z,12.85
2023-05-01T21:56:01.899Z,12.65
2023-05-01T22:01:03.189Z,12.79
2023-05-01T22:06:04.593Z,13.01
2023-05-01T22:11:07.784Z,13.02
2023-05-01T22:16:10.020Z,13.13
2023-05-01T22:21:11.331Z,13.17
2023-05-01T22:26:12.566Z,13.22
2023-05-01T22:31:13.820Z,13.07
2023-05-01T22:36:15.196Z,12.94
2023-05-01T22:41:16.661Z,12.71
2023-05-01T22:46:17.968Z,12.72
2023-05-01T22:51:19.332Z,13.03
2023-05-01T22:56:21.030Z,12.99
2023-05-01T23:01:27.041Z,12.96
2023-05-01T23:06:28.507Z,12.88
2023-05-01T23:11:29.933Z,12.76
2023-05-01T23:16:31.444Z,12.47
2023-05-01T23:21:33.083Z,12.24
2023-05-01T23:26:34.362Z,11.95
2023-05-01T23:31:35.662Z,12.23
2023-05-01T23:36:36.902Z,12.18
2023-05-01T23:41:38.304Z,12.08
2023-05-01T23:46:39.738Z,11.98
2023-05-01T23:51:41.011Z,11.87
2023-05-01T23:56:42.267Z,11.53
